Time;durP1;ratioP1;P1;durP2;ratioP2;P2;SDS_P1;SDS_P2;PMS_P1;PMS_P2;Temp;Humidity;BMP_temperature;BMP_pressure;BME280_temperature;BME280_humidity;BME280_pressure;Samples;Min_cycle;Max_cycle;Signal;HPM_P1;HPM_P2
2023/07/28 00:01:25;;;;;;;4.20;3.00;;;18.30;99.90;;;;;;5114045;28;20181;-51
2023/07/28 00:03:51;;;;;;;3.75;3.35;;;18.40;99.90;;;;;;5114043;28;20169;-53
2023/07/28 00:06:17;;;;;;;3.60;3.30;;;18.30;99.90;;;;;;5113664;28;20169;-51
2023/07/28 00:08:42;;;;;;;3.67;3.13;;;18.40;99.90;;;;;;5113890;28;20201;-51
2023/07/28 00:11:13;;;;;;;3.88;3.58;;;18.40;99.90;;;;;;5113950;28;20200;-52
2023/07/28 00:13:39;;;;;;;5.07;3.30;;;18.40;99.90;;;;;;5113944;28;20177;-53
2023/07/28 00:16:06;;;;;;;6.90;3.30;;;18.50;99.90;;;;;;5113896;28;20173;-53
2023/07/28 00:18:31;;;;;;;5.22;3.13;;;18.50;99.90;;;;;;5113641;28;20662;-51
2023/07/28 00:20:57;;;;;;;5.97;3.83;;;18.50;99.90;;;;;;5113845;28;20173;-54
2023/07/28 00:23:23;;;;;;;6.43;3.92;;;18.50;99.90;;;;;;5113492;28;20177;-53
2023/07/28 00:25:48;;;;;;;3.65;3.35;;;18.50;99.90;;;;;;5113535;28;20173;-53
2023/07/28 00:28:14;;;;;;;4.15;3.75;;;18.50;99.90;;;;;;5113708;28;20197;-52
2023/07/28 00:30:40;;;;;;;5.22;3.80;;;18.50;99.90;;;;;;5115076;28;20180;-53
2023/07/28 00:33:05;;;;;;;5.53;4.20;;;18.60;99.90;;;;;;5117907;28;20295;-53
2023/07/28 00:35:31;;;;;;;4.50;3.95;;;18.60;99.90;;;;;;5117799;28;20266;-52
2023/07/28 00:37:57;;;;;;;5.22;4.35;;;18.60;99.90;;;;;;5117757;28;20185;-49
2023/07/28 00:40:23;;;;;;;4.88;4.47;;;18.70;99.90;;;;;;5117750;28;20169;-53
2023/07/28 00:42:49;;;;;;;6.20;4.45;;;18.50;99.90;;;;;;5117414;28;20170;-51
2023/07/28 00:45:14;;;;;;;6.28;4.63;;;18.60;99.90;;;;;;5117898;28;20191;-52
2023/07/28 00:47:40;;;;;;;5.13;4.63;;;18.60;99.90;;;;;;5117504;28;20178;-54
2023/07/28 00:50:08;;;;;;;5.93;5.00;;;18.60;99.90;;;;;;5117537;28;20174;-53
2023/07/28 00:52:34;;;;;;;5.57;4.60;;;18.60;99.90;;;;;;5117447;28;20234;-51
2023/07/28 00:55:01;;;;;;;5.15;4.75;;;18.60;99.90;;;;;;5117445;28;20186;-51
2023/07/28 00:57:26;;;;;;;7.38;4.85;;;18.60;99.90;;;;;;5117411;28;20170;-52
2023/07/28 00:59:53;;;;;;;6.43;5.20;;;18.60;99.90;;;;;;5117076;28;20618;-53
2023/07/28 01:02:19;;;;;;;5.45;4.68;;;18.70;99.90;;;;;;5117308;27;20181;-52
2023/07/28 01:04:45;;;;;;;6.28;5.00;;;18.60;99.90;;;;;;5117304;28;20166;-50
2023/07/28 01:07:20;;;;;;;6.53;5.47;;;18.60;99.90;;;;;;5117293;28;20174;-53
2023/07/28 01:10:08;;;;;;;5.60;4.70;;;18.70;99.90;;;;;;5117178;28;20196;-52
2023/07/28 01:12:34;;;;;;;8.88;5.32;;;18.70;99.90;;;;;;5117261;27;20165;-53
2023/07/28 01:14:59;;;;;;;5.72;5.03;;;18.60;99.90;;;;;;5117057;28;20169;-50
2023/07/28 01:17:25;;;;;;;5.72;4.90;;;18.70;99.90;;;;;;5117031;28;20180;-52
2023/07/28 01:19:51;;;;;;;5.47;4.97;;;18.60;99.90;;;;;;5116901;28;20229;-51
2023/07/28 01:22:39;;;;;;;8.40;5.10;;;18.60;99.90;;;;;;5116912;28;20230;-50
2023/07/28 01:25:47;;;;;;;5.28;4.72;;;18.60;99.90;;;;;;5116913;28;20169;-53
2023/07/28 01:28:13;;;;;;;7.10;5.07;;;18.60;99.90;;;;;;5086389;28;20681;-49
2023/07/28 01:30:39;;;;;;;6.07;4.95;;;18.60;99.90;;;;;;5116747;28;20246;-50
2023/07/28 01:33:08;;;;;;;5.53;4.88;;;18.60;99.90;;;;;;5117026;28;20165;-53
2023/07/28 01:35:40;;;;;;;5.88;5.22;;;18.60;99.90;;;;;;5116707;28;20237;-51
2023/07/28 01:38:06;;;;;;;7.47;4.75;;;18.60;99.90;;;;;;5116677;28;20165;-51
2023/07/28 01:40:32;;;;;;;6.30;5.18;;;18.60;99.90;;;;;;5116498;28;20173;-51
2023/07/28 01:42:58;;;;;;;6.53;4.82;;;18.60;99.90;;;;;;5116352;28;20175;-52
2023/07/28 01:45:23;;;;;;;6.50;4.70;;;18.60;99.90;;;;;;5116523;28;20173;-53
2023/07/28 01:47:49;;;;;;;6.70;4.78;;;18.60;99.90;;;;;;5115173;28;20193;-50
2023/07/28 01:50:15;;;;;;;10.48;4.85;;;18.60;99.90;;;;;;5116355;28;20261;-49
2023/07/28 01:52:40;;;;;;;5.68;5.00;;;18.60;99.90;;;;;;5116306;28;20256;-51
2023/07/28 01:55:06;;;;;;;5.25;4.78;;;18.60;99.90;;;;;;5116345;28;20184;-49
2023/07/28 01:57:38;;;;;;;7.63;5.15;;;18.60;99.90;;;;;;5116221;28;20592;-52
2023/07/28 02:00:04;;;;;;;6.10;5.50;;;18.60;99.90;;;;;;5116242;28;20165;-48
2023/07/28 02:02:31;;;;;;;6.15;5.00;;;18.50;99.90;;;;;;5116205;28;20614;-53
2023/07/28 02:04:57;;;;;;;5.88;4.57;;;18.60;99.90;;;;;;5116136;28;20165;-52
2023/07/28 02:07:22;;;;;;;6.55;5.13;;;18.60;99.90;;;;;;5116109;28;20619;-51
2023/07/28 02:09:48;;;;;;;5.35;4.85;;;18.70;99.90;;;;;;5115875;28;20738;-49
2023/07/28 02:12:14;;;;;;;5.97;5.30;;;18.70;99.90;;;;;;5115984;28;20640;-53
2023/07/28 02:14:39;;;;;;;5.85;4.90;;;18.70;99.90;;;;;;5115930;28;20199;-53
2023/07/28 02:17:05;;;;;;;6.40;4.97;;;18.70;99.90;;;;;;5116129;28;20179;-52
2023/07/28 02:19:31;;;;;;;4.93;4.53;;;18.70;99.90;;;;;;5115838;28;20320;-53
2023/07/28 02:21:56;;;;;;;6.43;4.95;;;18.70;99.90;;;;;;5115757;28;20260;-50
2023/07/28 02:24:22;;;;;;;5.93;4.60;;;18.70;99.90;;;;;;5115727;28;20246;-49
2023/07/28 02:26:48;;;;;;;6.57;4.13;;;18.60;99.90;;;;;;5115694;28;20181;-51
2023/07/28 02:29:13;;;;;;;6.00;4.30;;;18.60;99.90;;;;;;5116193;28;20205;-52
2023/07/28 02:31:39;;;;;;;4.72;3.90;;;18.50;99.90;;;;;;5115265;28;20181;-51
2023/07/28 02:34:05;;;;;;;4.63;4.22;;;18.50;99.90;;;;;;5115566;28;20165;-50
2023/07/28 02:36:31;;;;;;;7.40;4.55;;;18.50;99.90;;;;;;5115532;28;20226;-53
2023/07/28 02:38:57;;;;;;;4.85;4.15;;;18.50;99.90;;;;;;5115425;28;20212;-53
2023/07/28 02:41:22;;;;;;;5.05;3.92;;;18.60;99.90;;;;;;5115400;28;20205;-51
2023/07/28 02:43:48;;;;;;;6.45;4.45;;;18.60;99.90;;;;;;5115023;28;20180;-52
2023/07/28 02:46:13;;;;;;;6.90;4.10;;;18.50;99.90;;;;;;5115300;28;20196;-53
2023/07/28 02:48:39;;;;;;;5.05;4.28;;;18.60;99.90;;;;;;5115196;28;20222;-51
2023/07/28 02:51:05;;;;;;;4.72;4.15;;;18.60;99.90;;;;;;5115514;28;20204;-53
2023/07/28 02:53:30;;;;;;;8.02;3.97;;;18.60;99.90;;;;;;5114636;28;20201;-53
2023/07/28 02:55:56;;;;;;;4.75;4.22;;;18.70;99.90;;;;;;5114799;28;20691;-48
2023/07/28 02:58:22;;;;;;;5.55;4.45;;;18.60;99.90;;;;;;5113910;28;20184;-49
2023/07/28 03:00:48;;;;;;;5.13;4.32;;;18.50;99.90;;;;;;5115031;28;20170;-50
2023/07/28 03:03:13;;;;;;;4.65;3.80;;;18.60;99.90;;;;;;5115277;28;20177;-50
2023/07/28 03:05:40;;;;;;;4.13;3.78;;;18.50;99.90;;;;;;5114933;28;20637;-49
2023/07/28 03:08:06;;;;;;;5.55;3.58;;;18.50;99.90;;;;;;5114819;28;20205;-49
2023/07/28 03:10:32;;;;;;;6.43;3.78;;;18.50;99.90;;;;;;5114570;28;20174;-49
2023/07/28 03:12:58;;;;;;;4.32;3.30;;;18.50;99.90;;;;;;5114837;28;20652;-50
2023/07/28 03:15:24;;;;;;;3.88;3.50;;;18.50;99.90;;;;;;5114753;28;20259;-49
2023/07/28 03:17:50;;;;;;;3.85;3.20;;;18.60;99.90;;;;;;5114798;28;20522;-49
2023/07/28 03:20:17;;;;;;;5.95;3.38;;;18.60;99.90;;;;;;5114283;28;20228;-50
2023/07/28 03:22:43;;;;;;;6.28;3.50;;;18.50;99.90;;;;;;5114859;28;20173;-48
2023/07/28 03:25:09;;;;;;;4.93;2.85;;;18.50;99.90;;;;;;5114569;28;20169;-49
2023/07/28 03:27:34;;;;;;;4.53;3.15;;;18.60;99.90;;;;;;5114500;28;20173;-50
2023/07/28 03:30:00;;;;;;;5.97;3.38;;;18.60;99.90;;;;;;5114473;28;20180;-50
2023/07/28 03:32:26;;;;;;;6.00;3.10;;;18.50;99.90;;;;;;5114485;28;20170;-49
2023/07/28 03:34:52;;;;;;;6.35;3.30;;;18.50;99.90;;;;;;5114407;28;20230;-51
2023/07/28 03:37:17;;;;;;;3.95;3.10;;;18.50;99.90;;;;;;5114073;28;20173;-51
2023/07/28 03:39:43;;;;;;;5.78;3.00;;;18.60;99.90;;;;;;5114050;28;20177;-50
2023/07/28 03:42:09;;;;;;;4.45;2.80;;;18.50;99.90;;;;;;5114299;28;20177;-48
2023/07/28 03:44:37;;;;;;;4.78;2.97;;;18.40;99.90;;;;;;5114164;28;20177;-52
2023/07/28 03:47:03;;;;;;;5.00;3.13;;;18.50;99.90;;;;;;5114172;27;20694;-49
2023/07/28 03:49:29;;;;;;;3.22;2.90;;;18.50;99.90;;;;;;5114107;28;20558;-50
2023/07/28 03:51:55;;;;;;;3.30;2.85;;;18.50;99.90;;;;;;5114152;28;20165;-50
2023/07/28 03:54:21;;;;;;;4.07;2.75;;;18.50;99.90;;;;;;5114167;28;20197;-49
2023/07/28 03:56:46;;;;;;;2.53;2.33;;;18.50;99.90;;;;;;5114182;28;20653;-50
2023/07/28 03:59:12;;;;;;;3.28;2.50;;;18.50;99.90;;;;;;5114081;28;20188;-50
2023/07/28 04:01:38;;;;;;;3.10;2.63;;;18.50;99.90;;;;;;5112996;28;20257;-48
2023/07/28 04:04:04;;;;;;;3.40;2.80;;;18.60;99.90;;;;;;5113908;28;20212;-50
2023/07/28 04:06:59;;;;;;;4.72;2.45;;;18.50;99.90;;;;;;5112798;28;20173;-49
2023/07/28 04:09:24;;;;;;;3.78;2.80;;;18.50;99.90;;;;;;5100517;28;20312;-52
2023/07/28 04:11:50;;;;;;;5.72;2.67;;;18.50;99.90;;;;;;5113949;28;20629;-48
2023/07/28 04:14:15;;;;;;;2.85;2.53;;;18.50;99.90;;;;;;5113619;28;20638;-49
2023/07/28 04:16:41;;;;;;;3.03;2.80;;;18.50;99.90;;;;;;5113869;28;20181;-49
2023/07/28 04:19:07;;;;;;;3.70;2.67;;;18.50;99.90;;;;;;5113779;28;20679;-49
2023/07/28 04:21:32;;;;;;;2.95;2.75;;;18.40;99.90;;;;;;5113600;28;20174;-48
2023/07/28 04:23:58;;;;;;;4.07;2.63;;;18.40;99.90;;;;;;5113845;28;20499;-50
2023/07/28 04:26:24;;;;;;;3.40;2.47;;;18.40;99.90;;;;;;5113557;28;20499;-53
2023/07/28 04:28:50;;;;;;;4.35;2.90;;;18.50;99.90;;;;;;5113692;28;20189;-49
2023/07/28 04:31:16;;;;;;;4.28;2.80;;;18.60;99.90;;;;;;5112435;28;20184;-50
2023/07/28 04:33:42;;;;;;;3.33;3.03;;;18.50;99.90;;;;;;5113434;28;20170;-51
2023/07/28 04:36:08;;;;;;;4.18;3.10;;;18.50;99.90;;;;;;5113715;28;20180;-52
2023/07/28 04:38:34;;;;;;;5.45;2.75;;;18.50;99.90;;;;;;5113759;28;20626;-48
2023/07/28 04:41:00;;;;;;;3.95;3.10;;;18.60;99.90;;;;;;5113786;28;20172;-48
2023/07/28 04:43:25;;;;;;;3.60;2.78;;;18.50;99.90;;;;;;5113588;28;20165;-50
2023/07/28 04:45:51;;;;;;;3.03;2.83;;;18.60;99.90;;;;;;5113996;28;20182;-52
2023/07/28 04:48:17;;;;;;;3.22;2.92;;;18.50;99.90;;;;;;5113520;28;20197;-50
2023/07/28 04:50:42;;;;;;;3.22;2.92;;;18.50;99.90;;;;;;5113337;28;20173;-49
2023/07/28 04:53:08;;;;;;;3.17;2.95;;;18.60;99.90;;;;;;5113297;28;20638;-52
2023/07/28 04:55:33;;;;;;;5.70;3.03;;;18.60;99.90;;;;;;5113538;28;20177;-49
2023/07/28 04:57:59;;;;;;;3.90;3.30;;;18.60;99.90;;;;;;5113806;28;20184;-49
2023/07/28 05:00:25;;;;;;;3.55;2.75;;;18.70;99.90;;;;;;5113483;28;20192;-50
2023/07/28 05:02:50;;;;;;;3.83;3.08;;;18.60;99.90;;;;;;5113715;28;20178;-49
2023/07/28 05:05:16;;;;;;;3.03;2.83;;;18.50;99.90;;;;;;5113437;28;20724;-51
2023/07/28 05:07:42;;;;;;;5.20;2.83;;;18.60;99.90;;;;;;5113385;28;20169;-50
2023/07/28 05:10:08;;;;;;;3.65;2.75;;;18.60;99.90;;;;;;5113904;28;20351;-50
2023/07/28 05:12:33;;;;;;;4.28;2.90;;;18.70;99.90;;;;;;5113464;28;20231;-51
2023/07/28 05:14:59;;;;;;;2.75;2.55;;;18.70;99.90;;;;;;5113350;28;20553;-53
2023/07/28 05:17:25;;;;;;;4.00;2.80;;;18.70;99.90;;;;;;5115433;28;20630;-51
2023/07/28 05:19:51;;;;;;;6.40;2.95;;;18.70;99.90;;;;;;5117062;28;20569;-51
2023/07/28 05:22:17;;;;;;;5.85;2.88;;;18.60;99.90;;;;;;5116951;28;20219;-53
2023/07/28 05:24:44;;;;;;;4.82;3.10;;;18.70;99.90;;;;;;5116929;28;20618;-49
2023/07/28 05:27:10;;;;;;;2.92;2.72;;;18.70;99.90;;;;;;5116848;28;20162;-48
2023/07/28 05:29:35;;;;;;;3.08;2.88;;;18.60;99.90;;;;;;5116792;28;20216;-50
2023/07/28 05:32:01;;;;;;;3.70;3.03;;;18.70;99.90;;;;;;5116490;28;20653;-48
2023/07/28 05:34:27;;;;;;;5.57;3.00;;;18.70;99.90;;;;;;5116732;28;20201;-51
2023/07/28 05:36:52;;;;;;;3.95;2.97;;;18.70;99.90;;;;;;5116670;28;20184;-52
2023/07/28 05:39:18;;;;;;;3.17;2.92;;;18.70;99.90;;;;;;5116624;28;20270;-51
2023/07/28 05:41:44;;;;;;;3.30;3.00;;;18.70;99.90;;;;;;5116575;28;20173;-53
2023/07/28 05:44:09;;;;;;;4.22;3.40;;;18.80;99.90;;;;;;5116531;28;20170;-50
2023/07/28 05:46:35;;;;;;;4.75;3.20;;;18.80;99.90;;;;;;5116460;28;20162;-51
2023/07/28 05:49:01;;;;;;;3.38;3.08;;;18.80;99.90;;;;;;5116164;28;20208;-49
2023/07/28 05:51:27;;;;;;;5.00;3.15;;;18.90;99.90;;;;;;5116404;27;20173;-51
2023/07/28 05:53:52;;;;;;;4.75;2.92;;;18.90;99.90;;;;;;5116218;28;20177;-50
2023/07/28 05:56:18;;;;;;;3.33;3.03;;;18.90;99.90;;;;;;5116297;28;20181;-48
2023/07/28 05:58:45;;;;;;;3.42;2.92;;;18.90;99.90;;;;;;5115961;28;20238;-49
2023/07/28 06:01:11;;;;;;;4.65;2.65;;;19.00;99.90;;;;;;5116152;28;20187;-52
2023/07/28 06:03:37;;;;;;;3.10;2.72;;;18.90;99.90;;;;;;5116193;28;20169;-53
2023/07/28 06:06:02;;;;;;;3.75;2.70;;;18.80;99.90;;;;;;5115811;28;20646;-49
2023/07/28 06:08:28;;;;;;;2.72;2.40;;;18.80;99.90;;;;;;5115946;28;20208;-52
2023/07/28 06:10:54;;;;;;;4.63;2.90;;;18.80;99.90;;;;;;5116054;28;20173;-49
2023/07/28 06:13:20;;;;;;;2.65;2.45;;;18.90;99.90;;;;;;5115936;28;20177;-51
2023/07/28 06:15:47;;;;;;;4.22;2.20;;;19.00;99.90;;;;;;5116011;27;20177;-50
2023/07/28 06:18:13;;;;;;;2.88;2.28;;;19.00;99.90;;;;;;5115425;28;20638;-48
2023/07/28 06:20:42;;;;;;;2.78;2.28;;;19.00;99.90;;;;;;5115647;27;20181;-51
2023/07/28 06:23:08;;;;;;;2.95;2.60;;;19.00;99.90;;;;;;5115760;28;20173;-49
2023/07/28 06:25:34;;;;;;;4.07;2.33;;;19.10;99.90;;;;;;5115953;28;20174;-48
2023/07/28 06:28:00;;;;;;;2.33;2.08;;;19.10;99.90;;;;;;5114620;28;20204;-52
2023/07/28 06:30:26;;;;;;;2.42;2.22;;;19.10;99.90;;;;;;5115663;28;20260;-53
2023/07/28 06:32:51;;;;;;;2.20;2.08;;;19.00;99.90;;;;;;5115912;27;20258;-47
2023/07/28 06:35:17;;;;;;;2.33;2.20;;;19.00;99.90;;;;;;5115274;28;20177;-51
2023/07/28 06:37:43;;;;;;;2.58;2.38;;;19.20;99.90;;;;;;5115512;28;20184;-50
2023/07/28 06:40:10;;;;;;;4.05;2.60;;;19.30;99.90;;;;;;5115464;28;20209;-48
2023/07/28 06:42:36;;;;;;;5.22;2.50;;;19.30;99.90;;;;;;5115381;28;20172;-51
2023/07/28 06:45:05;;;;;;;3.42;2.63;;;19.30;99.90;;;;;;5115019;27;20593;-53
2023/07/28 06:47:31;;;;;;;3.58;2.55;;;19.30;99.90;;;;;;5114978;28;20595;-51
2023/07/28 06:49:56;;;;;;;3.67;2.72;;;19.30;99.90;;;;;;5115026;28;20292;-48
2023/07/28 06:52:22;;;;;;;4.30;2.40;;;19.40;99.90;;;;;;5114950;28;20177;-50
2023/07/28 06:54:49;;;;;;;3.80;2.30;;;19.40;99.90;;;;;;5115113;28;20208;-52
2023/07/28 06:57:15;;;;;;;3.63;2.47;;;19.30;99.90;;;;;;5115132;28;20178;-51
2023/07/28 06:59:42;;;;;;;2.65;2.30;;;19.40;99.90;;;;;;5115103;28;20177;-48
2023/07/28 07:02:09;;;;;;;2.20;2.10;;;19.40;99.90;;;;;;5115085;28;20677;-48
2023/07/28 07:04:34;;;;;;;3.28;2.10;;;19.50;99.90;;;;;;5114915;28;20519;-50
2023/07/28 07:07:00;;;;;;;2.10;1.90;;;19.50;99.90;;;;;;5114908;28;20174;-48
2023/07/28 07:09:25;;;;;;;2.00;1.90;;;19.70;99.90;;;;;;5114803;28;20208;-51
2023/07/28 07:11:51;;;;;;;1.88;1.77;;;19.40;99.90;;;;;;5114844;28;20169;-50
2023/07/28 07:14:17;;;;;;;3.88;1.98;;;19.50;99.90;;;;;;5114790;28;20218;-50
2023/07/28 07:16:42;;;;;;;2.35;1.58;;;19.60;99.90;;;;;;5114764;28;20249;-50
2023/07/28 07:19:11;;;;;;;2.35;1.85;;;19.60;99.90;;;;;;5114603;28;20256;-51
2023/07/28 07:21:37;;;;;;;2.00;1.55;;;19.70;99.90;;;;;;5114692;28;20204;-48
2023/07/28 07:24:04;;;;;;;1.60;1.50;;;19.70;99.90;;;;;;5114615;28;20197;-51
2023/07/28 07:26:31;;;;;;;1.67;1.50;;;19.80;99.90;;;;;;5114603;28;20169;-53
2023/07/28 07:28:57;;;;;;;1.33;1.23;;;19.80;99.90;;;;;;5114397;28;20654;-52
2023/07/28 07:31:23;;;;;;;3.25;1.52;;;19.80;99.90;;;;;;5114482;28;20174;-53
2023/07/28 07:33:49;;;;;;;2.90;1.75;;;19.80;99.90;;;;;;5114471;28;20262;-52
2023/07/28 07:36:19;;;;;;;2.35;1.85;;;19.80;99.90;;;;;;5114417;28;20174;-52
2023/07/28 07:38:46;;;;;;;2.92;1.92;;;19.70;99.90;;;;;;5114419;28;20157;-51
2023/07/28 07:41:12;;;;;;;3.30;2.10;;;19.80;99.90;;;;;;5114188;28;20607;-50
2023/07/28 07:43:38;;;;;;;2.83;2.22;;;19.90;99.90;;;;;;5114326;28;20174;-52
2023/07/28 07:46:04;;;;;;;3.28;2.30;;;19.90;99.90;;;;;;5114553;28;20212;-51
2023/07/28 07:48:30;;;;;;;3.03;2.28;;;19.80;99.90;;;;;;5113893;28;20224;-49
2023/07/28 07:50:56;;;;;;;3.17;2.45;;;19.80;99.90;;;;;;5114163;28;20174;-52
2023/07/28 07:53:21;;;;;;;2.72;2.35;;;19.80;99.90;;;;;;5113100;28;20185;-50
2023/07/28 07:55:49;;;;;;;4.53;2.50;;;19.90;99.90;;;;;;5114220;28;20630;-51
2023/07/28 07:58:14;;;;;;;3.25;2.75;;;19.90;99.90;;;;;;5114123;28;20263;-51
2023/07/28 08:00:40;;;;;;;3.88;2.60;;;19.90;99.90;;;;;;5113758;28;20223;-49
2023/07/28 08:03:06;;;;;;;3.15;2.55;;;19.90;99.90;;;;;;5114065;28;20173;-50
2023/07/28 08:05:32;;;;;;;3.47;2.30;;;20.00;99.90;;;;;;5114057;28;20173;-53
2023/07/28 08:07:57;;;;;;;4.22;2.53;;;20.10;99.90;;;;;;5113591;28;20228;-53
2023/07/28 08:10:23;;;;;;;4.00;2.55;;;20.20;99.90;;;;;;5113984;28;20173;-50
2023/07/28 08:12:49;;;;;;;3.03;2.40;;;20.20;99.90;;;;;;5113957;28;20182;-49
2023/07/28 08:15:15;;;;;;;2.75;2.08;;;20.20;99.90;;;;;;5113704;28;20169;-54
2023/07/28 08:17:41;;;;;;;3.00;2.15;;;20.40;99.90;;;;;;5113906;28;20165;-50
2023/07/28 08:20:07;;;;;;;3.47;2.33;;;20.30;99.90;;;;;;5113953;28;20228;-47
2023/07/28 08:22:33;;;;;;;2.65;2.03;;;20.40;99.90;;;;;;5113847;28;20169;-53
2023/07/28 08:24:59;;;;;;;3.97;2.30;;;20.50;99.90;;;;;;5113824;28;20177;-52
2023/07/28 08:27:24;;;;;;;2.97;2.20;;;20.60;99.90;;;;;;5113837;28;20169;-52
2023/07/28 08:29:50;;;;;;;6.25;2.53;;;20.70;99.90;;;;;;5113806;28;20292;-50
2023/07/28 08:32:15;;;;;;;2.58;1.83;;;20.70;99.90;;;;;;5113807;28;20177;-53
2023/07/28 08:34:41;;;;;;;3.42;2.05;;;20.80;99.90;;;;;;5113771;28;20177;-52
2023/07/28 08:37:07;;;;;;;3.10;2.05;;;20.80;99.90;;;;;;5113666;28;20272;-52
2023/07/28 08:39:33;;;;;;;2.50;1.95;;;20.90;99.90;;;;;;5113683;28;20193;-51
2023/07/28 08:42:01;;;;;;;3.42;2.30;;;20.80;99.90;;;;;;5113642;28;20614;-49
2023/07/28 08:44:33;;;;;;;2.10;1.90;;;20.80;99.90;;;;;;5113621;28;20178;-50
2023/07/28 08:47:06;;;;;;;4.32;2.40;;;20.80;99.90;;;;;;5113746;28;20259;-50
2023/07/28 08:49:35;;;;;;;4.90;2.45;;;20.90;99.90;;;;;;5113629;28;20188;-50
2023/07/28 08:52:01;;;;;;;3.45;2.10;;;20.90;99.90;;;;;;5115450;28;20176;-52
2023/07/28 08:54:27;;;;;;;2.63;2.42;;;20.70;99.90;;;;;;5117510;28;20525;-50
2023/07/28 08:56:53;;;;;;;4.57;2.40;;;20.70;99.90;;;;;;5117486;28;20178;-53
2023/07/28 08:59:23;;;;;;;3.25;2.88;;;20.70;99.90;;;;;;5117369;28;20268;-48
2023/07/28 09:01:53;;;;;;;2.88;2.45;;;20.70;99.90;;;;;;5116104;28;20184;-48
2023/07/28 09:04:20;;;;;;;2.83;2.53;;;20.90;99.90;;;;;;5117354;28;20173;-48
2023/07/28 09:06:46;;;;;;;3.90;2.25;;;21.00;99.90;;;;;;5117251;28;20209;-47
2023/07/28 09:09:13;;;;;;;3.55;2.33;;;21.00;99.90;;;;;;5117104;28;20714;-48
2023/07/28 09:11:52;;;;;;;2.67;1.90;;;21.10;99.90;;;;;;5117171;28;20226;-47
2023/07/28 09:14:20;;;;;;;3.55;2.20;;;21.20;99.90;;;;;;5117202;28;20166;-48
2023/07/28 09:16:46;;;;;;;3.25;2.20;;;21.30;99.90;;;;;;5117121;28;20222;-52
2023/07/28 09:19:13;;;;;;;3.13;2.17;;;21.30;99.90;;;;;;5116753;28;20579;-49
2023/07/28 09:21:41;;;;;;;2.72;2.08;;;21.40;99.90;;;;;;5116937;28;20169;-51
2023/07/28 09:24:09;;;;;;;4.00;1.90;;;21.50;99.90;;;;;;5117004;28;20173;-51
2023/07/28 09:26:45;;;;;;;2.50;1.80;;;21.70;99.90;;;;;;5116961;28;20205;-52
2023/07/28 09:29:19;;;;;;;1.98;1.70;;;22.00;99.90;;;;;;5116471;28;20632;-48
2023/07/28 09:31:46;;;;;;;2.33;1.80;;;22.20;99.90;;;;;;5116894;27;20522;-52
2023/07/28 09:34:13;;;;;;;2.65;1.90;;;22.30;99.90;;;;;;5116812;28;20173;-52
2023/07/28 09:36:39;;;;;;;2.33;1.70;;;22.10;99.90;;;;;;5116667;28;20173;-51
2023/07/28 09:39:09;;;;;;;3.17;2.15;;;22.00;99.90;;;;;;5116671;28;20219;-49
2023/07/28 09:41:38;;;;;;;2.38;1.77;;;22.00;99.90;;;;;;5116986;27;20172;-49
2023/07/28 09:44:07;;;;;;;2.42;1.52;;;21.70;99.90;;;;;;5116209;28;20169;-51
2023/07/28 09:46:35;;;;;;;2.50;1.80;;;21.80;99.90;;;;;;5116221;28;20539;-49
2023/07/28 09:49:05;;;;;;;3.15;1.55;;;21.90;99.90;;;;;;5116383;28;20550;-53
2023/07/28 09:51:33;;;;;;;2.55;1.67;;;22.00;99.90;;;;;;5116404;28;20515;-49
2023/07/28 09:54:12;;;;;;;2.42;1.55;;;22.30;99.90;;;;;;5116393;28;20173;-49
2023/07/28 09:56:38;;;;;;;2.65;1.83;;;22.40;99.90;;;;;;5116381;28;20179;-49
2023/07/28 09:59:11;;;;;;;2.67;1.98;;;22.20;99.90;;;;;;5116223;28;20192;-51
2023/07/28 10:01:38;;;;;;;4.03;1.92;;;22.10;99.90;;;;;;5116277;28;20543;-50
2023/07/28 10:04:04;;;;;;;2.50;1.90;;;21.90;99.90;;;;;;5115838;28;20580;-49
2023/07/28 10:06:33;;;;;;;4.97;2.10;;;21.80;99.90;;;;;;5115822;28;20572;-48
2023/07/28 10:08:59;;;;;;;3.63;1.80;;;21.70;99.90;;;;;;5115982;28;20197;-49
2023/07/28 10:11:27;;;;;;;2.35;2.15;;;21.60;99.90;;;;;;5116025;28;20226;-50
2023/07/28 10:13:54;;;;;;;2.30;2.10;;;21.60;99.90;;;;;;5116020;28;20177;-51
2023/07/28 10:16:29;;;;;;;3.00;2.17;;;21.40;99.90;;;;;;5115988;28;20166;-51
2023/07/28 10:18:55;;;;;;;2.65;2.28;;;21.40;99.90;;;;;;5115702;28;20220;-50
2023/07/28 10:21:20;;;;;;;2.95;2.35;;;21.30;99.90;;;;;;5115801;28;20181;-47
2023/07/28 10:23:57;;;;;;;3.72;2.65;;;21.20;99.90;;;;;;5115510;28;20657;-48
2023/07/28 10:26:37;;;;;;;3.35;2.70;;;21.20;99.90;;;;;;5115769;28;20153;-48
2023/07/28 10:29:10;;;;;;;4.68;2.88;;;21.10;99.90;;;;;;5115635;28;20193;-50
2023/07/28 10:31:36;;;;;;;3.30;2.72;;;21.10;99.90;;;;;;5115637;28;20182;-49
2023/07/28 10:34:03;;;;;;;2.85;2.47;;;21.00;99.90;;;;;;5115631;28;20305;-52
2023/07/28 10:36:28;;;;;;;3.75;3.00;;;21.10;99.90;;;;;;5115578;27;20201;-50
2023/07/28 10:39:04;;;;;;;5.60;3.03;;;21.20;99.90;;;;;;5115320;28;20574;-50
2023/07/28 10:41:33;;;;;;;2.97;2.40;;;21.30;99.90;;;;;;5115459;28;20165;-50
2023/07/28 10:43:59;;;;;;;4.60;2.65;;;21.60;99.90;;;;;;5115437;28;20185;-52
2023/07/28 10:46:26;;;;;;;2.60;2.40;;;21.80;99.90;;;;;;5115296;28;20181;-50
2023/07/28 10:48:53;;;;;;;2.30;2.10;;;21.90;99.90;;;;;;5115183;28;20283;-53
2023/07/28 10:51:29;;;;;;;3.05;2.00;;;21.80;99.90;;;;;;5115237;28;20181;-51
2023/07/28 10:53:59;;;;;;;2.15;1.95;;;21.70;99.90;;;;;;5115255;28;20252;-52
2023/07/28 10:56:25;;;;;;;3.53;2.17;;;21.60;99.90;;;;;;5114911;28;20534;-51
2023/07/28 10:58:58;;;;;;;1.90;1.80;;;21.30;99.90;;;;;;5115097;27;20185;-50
2023/07/28 11:01:36;;;;;;;3.30;1.63;;;21.00;99.90;;;;;;5115053;28;20166;-52
2023/07/28 11:04:08;;;;;;;2.33;1.42;;;20.70;99.90;;;;;;5115054;28;20157;-52
2023/07/28 11:06:34;;;;;;;2.92;1.35;;;20.80;99.90;;;;;;5114919;28;20177;-50
2023/07/28 11:09:00;;;;;;;1.92;1.35;;;20.90;99.90;;;;;;5114499;28;20250;-50
2023/07/28 11:11:26;;;;;;;2.22;1.33;;;20.90;99.90;;;;;;5114893;28;20180;-51
2023/07/28 11:13:52;;;;;;;2.13;1.20;;;21.10;99.90;;;;;;5114429;28;20253;-52
2023/07/28 11:16:19;;;;;;;2.67;1.40;;;21.20;99.90;;;;;;5114824;28;20189;-49
2023/07/28 11:18:44;;;;;;;2.70;1.20;;;21.20;99.90;;;;;;5114433;28;20221;-49
2023/07/28 11:21:11;;;;;;;1.60;1.20;;;21.30;99.90;;;;;;5114749;28;20253;-48
2023/07/28 11:23:37;;;;;;;1.17;1.00;;;21.40;99.90;;;;;;5114609;28;20507;-48
2023/07/28 11:26:05;;;;;;;3.55;1.20;;;21.60;99.90;;;;;;5114591;28;20177;-49
2023/07/28 11:28:32;;;;;;;1.40;1.30;;;21.70;99.90;;;;;;5114437;28;20236;-52
2023/07/28 11:30:59;;;;;;;1.65;1.33;;;21.80;99.90;;;;;;5114497;28;20526;-52
2023/07/28 11:33:25;;;;;;;2.38;1.10;;;21.70;99.90;;;;;;5114484;28;20611;-52
2023/07/28 11:35:50;;;;;;;5.00;1.48;;;21.60;99.90;;;;;;5114489;28;20223;-52
2023/07/28 11:38:16;;;;;;;1.42;1.10;;;21.50;99.90;;;;;;5114372;28;20252;-52
2023/07/28 11:40:43;;;;;;;1.58;1.27;;;21.60;99.90;;;;;;5114346;28;20252;-53
2023/07/28 11:43:09;;;;;;;2.70;1.10;;;21.70;99.90;;;;;;5114429;28;20177;-50
2023/07/28 11:45:34;;;;;;;1.10;1.00;;;21.90;99.90;;;;;;5114320;28;20643;-50
2023/07/28 11:48:09;;;;;;;4.57;1.00;;;21.80;99.90;;;;;;5113882;28;20174;-51
2023/07/28 11:50:40;;;;;;;1.55;0.98;;;21.80;99.90;;;;;;5114568;28;20176;-51
2023/07/28 11:53:07;;;;;;;2.30;1.48;;;21.50;99.90;;;;;;5114598;28;20169;-48
2023/07/28 11:55:37;;;;;;;1.27;1.10;;;21.60;99.90;;;;;;5113773;28;20166;-48
2023/07/28 11:58:04;;;;;;;5.35;1.45;;;21.80;99.90;;;;;;5114097;28;20619;-51
2023/07/28 12:00:34;;;;;;;3.88;1.30;;;22.10;99.90;;;;;;5114039;28;20267;-53
2023/07/28 12:03:09;;;;;;;0.95;0.85;;;22.20;99.90;;;;;;5113843;28;20168;-49
2023/07/28 12:05:36;;;;;;;1.75;1.00;;;22.20;99.90;;;;;;5114068;28;20259;-48
2023/07/28 12:08:05;;;;;;;1.83;0.85;;;22.20;99.90;;;;;;5113933;28;20173;-50
2023/07/28 12:10:31;;;;;;;2.55;1.13;;;22.20;99.90;;;;;;5113953;28;20184;-50
2023/07/28 12:13:03;;;;;;;2.47;1.30;;;22.40;99.90;;;;;;5113981;28;20169;-47
2023/07/28 12:15:30;;;;;;;2.92;1.10;;;22.30;99.90;;;;;;5114022;28;20171;-48
2023/07/28 12:18:15;;;;;;;1.55;1.13;;;22.50;99.90;;;;;;5113870;28;20503;-48
2023/07/28 12:20:46;;;;;;;4.18;1.02;;;22.50;99.90;;;;;;5113872;28;20185;-50
2023/07/28 12:23:13;;;;;;;2.08;1.45;;;22.60;99.90;;;;;;5113849;28;20739;-48
2023/07/28 12:25:39;;;;;;;3.03;1.40;;;22.50;99.90;;;;;;5113893;28;20262;-49
2023/07/28 12:28:05;;;;;;;1.52;1.30;;;22.40;99.90;;;;;;5117588;28;20204;-49
2023/07/28 12:30:32;;;;;;;2.55;1.30;;;22.30;99.90;;;;;;5118043;28;20181;-49
2023/07/28 12:32:58;;;;;;;3.38;1.40;;;21.90;99.90;;;;;;5118085;28;20173;-50
2023/07/28 12:35:24;;;;;;;2.55;1.20;;;21.80;99.90;;;;;;5116682;28;20234;-50
2023/07/28 12:37:51;;;;;;;4.43;1.20;;;21.80;99.90;;;;;;5117829;28;20209;-52
2023/07/28 12:40:19;;;;;;;2.28;1.40;;;21.60;99.90;;;;;;5117791;28;20185;-50
2023/07/28 12:42:46;;;;;;;2.92;1.30;;;21.70;99.90;;;;;;5116514;28;20572;-50
2023/07/28 12:45:12;;;;;;;1.50;1.30;;;21.80;99.90;;;;;;5117676;28;20223;-49
2023/07/28 12:47:38;;;;;;;2.35;1.02;;;21.90;99.90;;;;;;5117872;28;20177;-49